createdAt,value
2022-07-26T00:00:18.859Z,87.80
2022-07-26T00:04:00.695Z,87.90
2022-07-26T00:07:42.527Z,88.30
2022-07-26T00:11:25.646Z,88.50
2022-07-26T00:15:08.642Z,89.10
2022-07-26T00:18:50.530Z,89.30
2022-07-26T00:22:35.269Z,89.40
2022-07-26T00:26:17.104Z,89.80
2022-07-26T00:29:58.901Z,90.00
2022-07-26T00:33:40.702Z,90.10
2022-07-26T00:37:22.501Z,90.20
2022-07-26T00:41:05.209Z,90.20
2022-07-26T00:44:47.040Z,90.10
2022-07-26T00:48:28.934Z,89.90
2022-07-26T00:52:11.057Z,89.50
2022-07-26T00:55:52.875Z,88.90
2022-07-26T00:59:34.755Z,88.50
2022-07-26T01:03:16.540Z,87.80
2022-07-26T01:06:58.352Z,87.20
2022-07-26T01:10:40.244Z,86.90
2022-07-26T01:14:22.882Z,86.40
2022-07-26T01:18:04.703Z,86.30
2022-07-26T01:21:46.526Z,86.00
2022-07-26T01:25:43.446Z,85.80
2022-07-26T01:29:35.398Z,85.60
2022-07-26T01:33:18.217Z,85.40
2022-07-26T01:37:00.101Z,85.20
2022-07-26T01:40:41.902Z,84.80
2022-07-26T01:44:23.907Z,84.40
2022-07-26T01:48:06.020Z,84.10
2022-07-26T01:51:47.822Z,84.00
2022-07-26T01:55:29.691Z,83.50
2022-07-26T01:59:11.472Z,83.30
2022-07-26T02:02:53.454Z,83.00
2022-07-26T02:06:35.362Z,82.90
2022-07-26T02:10:18.952Z,82.60
2022-07-26T02:14:00.707Z,82.50
2022-07-26T02:17:43.080Z,82.40
2022-07-26T02:21:24.865Z,82.20
2022-07-26T02:25:07.085Z,82.30
2022-07-26T02:28:48.889Z,82.00
2022-07-26T02:32:30.710Z,81.90
2022-07-26T02:36:12.538Z,82.00
2022-07-26T02:39:54.460Z,82.00
2022-07-26T02:43:36.243Z,82.00
2022-07-26T02:47:18.074Z,82.00
2022-07-26T02:51:00.019Z,82.00
2022-07-26T02:54:41.901Z,82.00
2022-07-26T02:58:25.094Z,82.00
2022-07-26T03:02:07.427Z,81.90
2022-07-26T03:05:49.326Z,82.60
2022-07-26T03:09:31.231Z,81.90
2022-07-26T03:13:13.017Z,81.70
2022-07-26T03:16:54.879Z,81.60
2022-07-26T03:20:36.798Z,81.50
2022-07-26T03:24:18.600Z,81.50
2022-07-26T03:28:00.405Z,81.40
2022-07-26T03:31:42.253Z,81.30
2022-07-26T03:35:24.108Z,81.50
2022-07-26T03:39:05.964Z,81.70
2022-07-26T03:42:48.076Z,82.40
2022-07-26T03:46:30.287Z,82.60
2022-07-26T03:50:13.664Z,83.40
2022-07-26T03:53:55.538Z,83.90
2022-07-26T03:57:38.500Z,84.50
2022-07-26T04:01:20.357Z,85.10
2022-07-26T04:05:02.142Z,85.70
2022-07-26T04:08:44.335Z,86.30
2022-07-26T04:12:26.116Z,87.00
2022-07-26T04:16:08.150Z,87.60
2022-07-26T04:19:49.960Z,87.90
2022-07-26T04:23:31.759Z,87.90
2022-07-26T04:27:13.572Z,88.30
2022-07-26T04:30:58.838Z,88.50
2022-07-26T04:34:40.634Z,88.50
2022-07-26T04:38:22.985Z,88.60
2022-07-26T04:42:04.878Z,88.40
2022-07-26T04:45:46.903Z,88.30
2022-07-26T04:49:28.739Z,88.30
2022-07-26T04:53:13.347Z,88.20
2022-07-26T04:56:55.164Z,87.70
2022-07-26T05:00:56.511Z,87.20
2022-07-26T05:04:39.053Z,86.80
2022-07-26T05:08:21.012Z,86.00
2022-07-26T05:12:02.876Z,85.80
2022-07-26T05:15:44.699Z,85.30
2022-07-26T05:19:26.735Z,84.70
2022-07-26T05:23:08.575Z,84.40
2022-07-26T05:26:52.320Z,83.80
2022-07-26T05:30:37.382Z,83.10
2022-07-26T05:34:19.192Z,82.80
2022-07-26T05:38:00.998Z,82.40
2022-07-26T05:41:42.831Z,82.00
2022-07-26T05:45:24.643Z,81.70
2022-07-26T05:49:06.548Z,81.00
2022-07-26T05:52:48.497Z,80.80
2022-07-26T05:56:30.294Z,80.30
2022-07-26T06:00:12.447Z,80.10
2022-07-26T06:03:54.283Z,79.60
2022-07-26T06:07:36.069Z,79.10
2022-07-26T06:11:17.920Z,78.70
2022-07-26T06:14:59.689Z,78.10
2022-07-26T06:18:41.473Z,78.00
2022-07-26T06:22:23.225Z,77.50
2022-07-26T06:26:05.345Z,77.20
2022-07-26T06:29:49.122Z,76.50
2022-07-26T06:33:30.974Z,76.10
2022-07-26T06:37:12.762Z,75.80
2022-07-26T06:40:54.628Z,75.50
2022-07-26T06:44:36.510Z,75.30
2022-07-26T06:48:18.290Z,74.50
2022-07-26T06:52:00.114Z,73.90
2022-07-26T06:55:41.955Z,73.30
2022-07-26T06:59:24.472Z,73.00
2022-07-26T07:03:06.302Z,72.20
2022-07-26T07:06:48.260Z,71.00
2022-07-26T07:10:31.510Z,70.60
2022-07-26T07:14:13.309Z,70.60
2022-07-26T07:17:55.126Z,70.50
2022-07-26T07:21:36.947Z,70.10
2022-07-26T07:25:21.081Z,70.50
2022-07-26T07:29:04.930Z,69.70
2022-07-26T07:32:46.828Z,68.50
2022-07-26T07:36:29.114Z,68.40
2022-07-26T07:40:11.414Z,66.30
2022-07-26T07:43:53.198Z,64.70
2022-07-26T07:47:35.263Z,64.50
2022-07-26T07:51:17.110Z,62.50
2022-07-26T07:55:21.854Z,61.00
2022-07-26T07:59:01.313Z,58.10
2022-07-26T08:02:43.157Z,56.20
2022-07-26T08:06:25.024Z,55.90
2022-07-26T08:10:07.231Z,55.20
2022-07-26T08:13:49.038Z,54.20
2022-07-26T08:17:30.923Z,53.60
2022-07-26T08:21:15.354Z,53.20
2022-07-26T08:24:57.470Z,52.80
2022-07-26T08:28:48.216Z,51.70
2022-07-26T08:32:30.531Z,50.90
2022-07-26T08:36:17.657Z,49.90
2022-07-26T08:39:59.417Z,51.70
2022-07-26T08:43:51.356Z,51.00
2022-07-26T08:47:37.997Z,50.60
2022-07-26T08:51:25.338Z,50.40
2022-07-26T08:55:07.613Z,51.10
2022-07-26T08:58:49.566Z,51.00
2022-07-26T09:02:40.054Z,51.90
2022-07-26T09:06:28.093Z,53.00
2022-07-26T09:10:11.728Z,52.20
2022-07-26T09:14:01.146Z,51.20
2022-07-26T09:17:47.202Z,51.30
2022-07-26T09:21:33.558Z,50.20
2022-07-26T09:25:22.341Z,50.40
2022-07-26T09:29:13.724Z,51.10
2022-07-26T09:32:58.932Z,50.00
2022-07-26T09:36:59.058Z,48.80
2022-07-26T09:40:41.234Z,50.50
2022-07-26T09:44:25.541Z,46.40
2022-07-26T09:48:07.709Z,46.10
2022-07-26T09:51:50.778Z,47.50
2022-07-26T09:55:42.436Z,48.30
2022-07-26T09:59:26.500Z,48.40
2022-07-26T10:03:08.427Z,49.00
2022-07-26T10:06:50.459Z,48.80
2022-07-26T10:10:34.274Z,49.30
2022-07-26T10:14:49.346Z,48.50
2022-07-26T10:18:38.166Z,50.80
2022-07-26T10:22:24.237Z,48.30
2022-07-26T10:26:07.772Z,46.60
2022-07-26T10:29:51.630Z,45.20
2022-07-26T10:33:33.591Z,44.90
2022-07-26T10:37:23.296Z,44.50
2022-07-26T10:41:07.854Z,44.90
2022-07-26T10:44:50.309Z,43.30
2022-07-26T10:48:32.196Z,40.70
2022-07-26T10:52:26.277Z,38.20
2022-07-26T10:56:08.122Z,40.20
2022-07-26T10:59:57.365Z,37.30
2022-07-26T11:03:40.280Z,38.00
2022-07-26T11:07:22.040Z,38.20
2022-07-26T11:11:03.872Z,37.70
2022-07-26T11:14:48.427Z,37.20
2022-07-26T11:18:38.423Z,35.90
2022-07-26T11:22:20.313Z,35.20
2022-07-26T11:26:02.613Z,33.00
2022-07-26T11:29:46.691Z,31.30
2022-07-26T11:33:37.889Z,31.10
2022-07-26T11:37:19.670Z,32.60
2022-07-26T11:41:01.448Z,31.70
2022-07-26T11:44:43.946Z,32.60
2022-07-26T11:48:25.730Z,33.40
2022-07-26T11:52:07.607Z,33.80
2022-07-26T11:55:49.418Z,34.50
2022-07-26T11:59:32.758Z,35.00
2022-07-26T12:03:14.581Z,34.10
2022-07-26T12:06:57.084Z,34.30
2022-07-26T12:10:38.892Z,34.20
2022-07-26T12:14:31.415Z,35.50
2022-07-26T12:18:22.035Z,37.70
2022-07-26T12:22:13.624Z,37.40
2022-07-26T12:25:55.429Z,36.40
2022-07-26T12:29:38.768Z,37.50
2022-07-26T12:33:20.727Z,39.00
2022-07-26T12:37:10.329Z,38.90
2022-07-26T12:40:52.516Z,40.10
2022-07-26T12:44:34.300Z,39.60
2022-07-26T12:48:16.089Z,40.50
2022-07-26T12:51:57.886Z,41.20
2022-07-26T12:55:41.144Z,41.40
2022-07-26T12:59:22.990Z,40.70
2022-07-26T13:03:04.759Z,41.00
2022-07-26T13:06:46.625Z,40.90
2022-07-26T13:10:36.250Z,40.10
2022-07-26T13:14:18.402Z,41.10
2022-07-26T13:18:00.174Z,41.20
2022-07-26T13:21:42.152Z,41.20
2022-07-26T13:25:23.973Z,39.80
2022-07-26T13:29:07.848Z,40.70
2022-07-26T13:32:49.702Z,40.50
2022-07-26T13:36:31.634Z,40.40
2022-07-26T13:40:13.528Z,39.50
2022-07-26T13:43:55.791Z,39.00
2022-07-26T13:47:37.622Z,39.40
2022-07-26T13:51:19.404Z,39.20
2022-07-26T13:55:01.330Z,38.80
2022-07-26T13:58:43.214Z,38.80
2022-07-26T14:02:25.823Z,38.20
2022-07-26T14:06:07.715Z,37.30
2022-07-26T14:09:49.520Z,35.80
2022-07-26T14:13:31.536Z,35.20
2022-07-26T14:17:13.304Z,35.10
2022-07-26T14:20:55.229Z,35.00
2022-07-26T14:24:37.006Z,34.60
2022-07-26T14:28:18.822Z,34.50
2022-07-26T14:32:00.684Z,34.20
2022-07-26T14:35:43.958Z,34.50
2022-07-26T14:39:28.983Z,34.00
2022-07-26T14:43:10.755Z,33.60
2022-07-26T14:46:53.214Z,31.50
2022-07-26T14:50:53.079Z,30.40
2022-07-26T14:54:36.782Z,29.80
2022-07-26T14:58:19.010Z,30.10
2022-07-26T15:02:05.500Z,30.70
2022-07-26T15:05:47.839Z,31.40
2022-07-26T15:09:29.632Z,31.50
2022-07-26T15:13:12.841Z,31.40
2022-07-26T15:16:54.702Z,30.70
2022-07-26T15:20:39.496Z,31.60
2022-07-26T15:24:23.134Z,33.20
2022-07-26T15:28:06.221Z,33.70
2022-07-26T15:31:49.234Z,34.20
2022-07-26T15:35:31.186Z,33.80
2022-07-26T15:39:17.557Z,34.10
2022-07-26T15:43:00.520Z,33.90
2022-07-26T15:46:42.370Z,35.00
2022-07-26T15:50:25.414Z,36.00
2022-07-26T15:54:11.574Z,37.20
2022-07-26T15:57:53.852Z,37.50
2022-07-26T16:01:36.342Z,38.00
2022-07-26T16:05:18.296Z,35.70
2022-07-26T16:09:19.002Z,34.40
2022-07-26T16:13:01.514Z,34.00
2022-07-26T16:16:43.687Z,34.50
2022-07-26T16:20:25.562Z,36.20
2022-07-26T16:24:08.091Z,37.20
2022-07-26T16:27:50.532Z,37.90
2022-07-26T16:31:32.537Z,38.60
2022-07-26T16:35:14.438Z,38.40
2022-07-26T16:38:56.244Z,35.30
2022-07-26T16:42:38.103Z,32.00
2022-07-26T16:46:19.997Z,30.10
2022-07-26T16:50:02.084Z,28.60
2022-07-26T16:53:45.276Z,28.20
2022-07-26T16:57:27.212Z,28.00
2022-07-26T17:01:09.188Z,28.40
2022-07-26T17:04:51.135Z,28.50
2022-07-26T17:08:33.071Z,29.70
2022-07-26T17:12:14.858Z,31.00
2022-07-26T17:15:56.799Z,32.50
2022-07-26T17:19:38.766Z,33.10
2022-07-26T17:23:20.723Z,31.80
2022-07-26T17:27:02.548Z,31.40
2022-07-26T17:30:44.394Z,31.80
2022-07-26T17:34:26.279Z,33.40
2022-07-26T17:38:08.056Z,33.80
2022-07-26T17:41:49.880Z,32.20
2022-07-26T17:45:31.761Z,31.80
2022-07-26T17:49:13.985Z,31.40
2022-07-26T17:52:56.353Z,31.10
2022-07-26T17:56:38.702Z,31.40
2022-07-26T18:00:21.412Z,31.50
2022-07-26T18:04:03.245Z,32.00
2022-07-26T18:07:45.037Z,32.00
2022-07-26T18:11:26.879Z,30.90
2022-07-26T18:15:09.173Z,30.50
2022-07-26T18:18:51.147Z,30.40
2022-07-26T18:22:32.954Z,30.80
2022-07-26T18:26:14.835Z,32.10
2022-07-26T18:29:56.997Z,33.70
2022-07-26T18:33:38.815Z,36.20
2022-07-26T18:37:20.882Z,38.10
2022-07-26T18:41:02.643Z,40.00
2022-07-26T18:44:44.754Z,41.50
2022-07-26T18:48:26.605Z,42.90
2022-07-26T18:52:09.941Z,43.40
2022-07-26T18:55:52.329Z,44.60
2022-07-26T18:59:34.090Z,46.50
2022-07-26T19:03:16.667Z,47.70
2022-07-26T19:06:58.463Z,48.00
2022-07-26T19:10:40.254Z,48.80
2022-07-26T19:14:22.097Z,49.10
2022-07-26T19:18:14.636Z,49.70
2022-07-26T19:21:56.429Z,49.60
2022-07-26T19:25:38.969Z,51.20
2022-07-26T19:29:20.766Z,51.70
2022-07-26T19:33:02.630Z,52.70
2022-07-26T19:36:44.490Z,53.90
2022-07-26T19:40:26.372Z,54.40
2022-07-26T19:44:08.137Z,55.50
2022-07-26T19:47:49.916Z,56.10
2022-07-26T19:51:32.003Z,56.90
2022-07-26T19:55:13.818Z,57.80
2022-07-26T19:58:56.479Z,58.20
2022-07-26T20:02:40.876Z,58.60
2022-07-26T20:06:23.673Z,59.30
2022-07-26T20:10:06.144Z,60.00
2022-07-26T20:13:48.275Z,60.70
2022-07-26T20:17:35.385Z,61.30
2022-07-26T20:21:17.202Z,62.00
2022-07-26T20:24:59.022Z,62.70
2022-07-26T20:28:41.777Z,63.20
2022-07-26T20:32:23.627Z,64.10
2022-07-26T20:36:05.579Z,64.70
2022-07-26T20:39:47.350Z,65.50
2022-07-26T20:43:30.070Z,66.00
2022-07-26T20:47:14.012Z,66.20
2022-07-26T20:50:56.038Z,67.10
2022-07-26T20:54:37.885Z,67.70
2022-07-26T20:58:20.057Z,68.00
2022-07-26T21:02:02.153Z,68.70
2022-07-26T21:05:44.641Z,69.00
2022-07-26T21:09:27.314Z,69.80
2022-07-26T21:13:09.890Z,70.50
2022-07-26T21:16:51.835Z,71.00
2022-07-26T21:20:33.743Z,71.50
2022-07-26T21:24:15.561Z,71.60
2022-07-26T21:27:57.358Z,72.60
2022-07-26T21:31:39.180Z,72.60
2022-07-26T21:35:20.979Z,73.80
2022-07-26T21:39:03.006Z,74.20
2022-07-26T21:42:44.811Z,74.90
2022-07-26T21:46:26.729Z,75.60
2022-07-26T21:50:09.125Z,76.60
2022-07-26T21:53:50.908Z,78.00
2022-07-26T21:57:32.678Z,77.50
2022-07-26T22:01:14.865Z,79.40
2022-07-26T22:04:57.568Z,79.10
2022-07-26T22:08:39.541Z,79.20
2022-07-26T22:12:21.443Z,79.70
2022-07-26T22:16:03.451Z,80.20
2022-07-26T22:19:45.253Z,80.30
2022-07-26T22:23:30.245Z,82.40
2022-07-26T22:27:12.142Z,82.00
2022-07-26T22:30:54.774Z,82.30
2022-07-26T22:34:36.587Z,82.60
2022-07-26T22:38:18.736Z,83.20
2022-07-26T22:42:14.989Z,83.50
2022-07-26T22:45:57.805Z,83.70
2022-07-26T22:49:39.691Z,83.90
2022-07-26T22:53:21.774Z,84.70
2022-07-26T22:57:03.750Z,84.90
2022-07-26T23:00:45.764Z,84.90
2022-07-26T23:04:27.680Z,85.10
2022-07-26T23:08:36.238Z,85.50
2022-07-26T23:12:11.569Z,86.30
2022-07-26T23:15:58.108Z,87.00
2022-07-26T23:19:42.279Z,86.20
2022-07-26T23:23:27.915Z,87.10
2022-07-26T23:27:14.352Z,86.90
2022-07-26T23:31:00.007Z,87.80
2022-07-26T23:34:43.972Z,87.40
2022-07-26T23:38:25.782Z,87.80
2022-07-26T23:42:07.724Z,88.00
2022-07-26T23:45:49.519Z,88.20
2022-07-26T23:49:31.434Z,88.60
2022-07-26T23:53:13.286Z,89.40
2022-07-26T23:56:55.068Z,89.30
